Time;durP1;ratioP1;P1;durP2;ratioP2;P2;SDS_P1;SDS_P2;PMS_P1;PMS_P2;Temp;Humidity;BMP_temperature;BMP_pressure;BME280_temperature;BME280_humidity;BME280_pressure;Samples;Min_cycle;Max_cycle;Signal;HPM_P1;HPM_P2
2022/07/15 00:01:49;;;;;;;;;;;14.10;99.90;;;;;;5056522;28;20385;-73
2022/07/15 00:04:15;;;;;;;;;;;14.10;99.90;;;;;;5057383;28;19939;-72
2022/07/15 00:06:40;;;;;;;;;;;14.00;99.90;;;;;;5064527;28;19913;-73
2022/07/15 00:09:06;;;;;;;;;;;14.10;99.90;;;;;;5069394;28;19908;-72
2022/07/15 00:11:31;;;;;;;;;;;14.00;99.90;;;;;;5070548;28;19917;-73
2022/07/15 00:13:57;;;;;;;;;;;13.90;99.90;;;;;;5069019;28;19917;-72
2022/07/15 00:16:22;;;;;;;;;;;13.90;99.90;;;;;;5052454;28;19999;-73
2022/07/15 00:18:48;;;;;;;;;;;14.00;99.90;;;;;;5070835;28;19924;-74
2022/07/15 00:21:13;;;;;;;;;;;13.90;99.90;;;;;;5053876;28;19924;-73
2022/07/15 00:23:39;;;;;;;;;;;14.00;99.90;;;;;;5070269;28;19909;-73
2022/07/15 00:26:05;;;;;;;;;;;13.90;99.90;;;;;;5073089;28;19915;-73
2022/07/15 00:28:34;;;;;;;;;;;13.80;99.90;;;;;;5070016;28;20376;-73
2022/07/15 00:30:59;;;;;;;;;;;13.80;99.90;;;;;;5071678;28;19913;-73
2022/07/15 00:33:25;;;;;;;;;;;13.80;99.90;;;;;;5063494;28;19909;-73
2022/07/15 00:35:51;;;;;;;;;;;13.80;99.90;;;;;;5058890;28;19919;-72
2022/07/15 00:38:17;;;;;;;;;;;13.90;99.90;;;;;;5057536;28;19921;-73
2022/07/15 00:40:43;;;;;;;;;;;13.80;99.90;;;;;;5059510;28;19924;-72
2022/07/15 00:43:09;;;;;;;;;;;13.80;99.90;;;;;;5068220;28;19982;-72
2022/07/15 00:45:35;;;;;;;;;;;13.80;99.90;;;;;;5066608;28;19917;-72
2022/07/15 00:48:00;;;;;;;;;;;13.80;99.90;;;;;;5057312;28;19909;-72
2022/07/15 00:50:26;;;;;;;;;;;13.80;99.90;;;;;;5057430;28;19966;-72
2022/07/15 00:52:57;;;;;;;;;;;13.70;99.90;;;;;;5057270;28;19909;-72
2022/07/15 00:55:23;;;;;;;;;;;13.70;99.90;;;;;;5056668;28;19909;-72
2022/07/15 00:57:49;;;;;;;;;;;13.70;99.90;;;;;;5056985;28;20285;-72
2022/07/15 01:00:15;;;;;;;;;;;13.70;99.90;;;;;;5055201;28;20578;-72
2022/07/15 01:02:43;;;;;;;;;;;13.70;99.90;;;;;;5046942;28;19909;-72
2022/07/15 01:05:10;;;;;;;;;;;13.80;99.90;;;;;;5036950;28;20355;-72
2022/07/15 01:07:36;;;;;;;;;;;13.70;99.90;;;;;;5036901;28;19909;-72
2022/07/15 01:10:01;;;;;;;;;;;13.70;99.90;;;;;;5045755;28;19995;-72
2022/07/15 01:12:27;;;;;;;;;;;13.60;99.90;;;;;;5051583;28;19921;-72
2022/07/15 01:14:53;;;;;;;;;;;13.60;99.90;;;;;;5072185;28;20339;-73
2022/07/15 01:17:19;;;;;;;;;;;13.60;99.90;;;;;;5071734;28;19908;-72
2022/07/15 01:19:44;;;;;;;;;;;13.60;99.90;;;;;;5070536;28;19920;-72
2022/07/15 01:22:10;;;;;;;;;;;13.70;99.90;;;;;;5070199;28;19909;-72
2022/07/15 01:24:35;;;;;;;;;;;13.70;99.90;;;;;;5058445;28;19919;-72
2022/07/15 01:27:01;;;;;;;;;;;13.70;99.90;;;;;;5064756;28;19912;-73
2022/07/15 01:29:27;;;;;;;;;;;13.70;99.90;;;;;;5064450;28;19908;-72
2022/07/15 01:31:52;;;;;;;;;;;13.70;99.90;;;;;;5046256;28;20369;-73
2022/07/15 01:34:19;;;;;;;;;;;13.70;99.90;;;;;;5047586;28;20006;-72
2022/07/15 01:36:44;;;;;;;;;;;13.80;99.90;;;;;;5063820;28;20346;-72
2022/07/15 01:39:10;;;;;;;;;;;13.80;99.90;;;;;;5064692;28;19948;-72
2022/07/15 01:41:35;;;;;;;;;;;13.80;99.90;;;;;;5065210;28;20313;-72
2022/07/15 01:44:01;;;;;;;;;;;13.70;99.90;;;;;;5063360;28;20285;-72
2022/07/15 01:46:26;;;;;;;;;;;13.70;99.90;;;;;;5065595;28;19916;-73
2022/07/15 01:51:36;;;;;;;;;;;13.70;99.90;;;;;;5064454;28;19999;-72
2022/07/15 01:54:01;;;;;;;;;;;13.70;99.90;;;;;;5045133;28;19944;-73
2022/07/15 01:56:27;;;;;;;;;;;13.60;99.90;;;;;;5064602;28;19909;-72
2022/07/15 01:58:52;;;;;;;;;;;13.60;99.90;;;;;;5064218;28;19916;-72
2022/07/15 02:01:18;;;;;;;;;;;13.60;99.90;;;;;;5047571;28;19920;-73
2022/07/15 02:03:44;;;;;;;;;;;13.60;99.90;;;;;;5062960;28;20002;-72
2022/07/15 02:06:09;;;;;;;;;;;13.70;99.90;;;;;;5063880;28;19908;-72
2022/07/15 02:08:35;;;;;;;;;;;13.70;99.90;;;;;;5064498;28;19909;-72
2022/07/15 02:11:00;;;;;;;;;;;13.80;99.90;;;;;;5062545;28;20270;-72
2022/07/15 02:13:26;;;;;;;;;;;13.70;99.90;;;;;;5064138;28;19995;-73
2022/07/15 02:15:51;;;;;;;;;;;13.70;99.90;;;;;;5063586;28;19952;-72
2022/07/15 02:18:17;;;;;;;;;;;13.80;99.90;;;;;;5065082;28;20324;-72
2022/07/15 02:20:42;;;;;;;;;;;13.80;99.90;;;;;;5044395;28;19913;-73
2022/07/15 02:23:09;;;;;;;;;;;13.70;99.90;;;;;;5063549;28;19908;-72
2022/07/15 02:25:35;;;;;;;;;;;13.80;99.90;;;;;;5064328;28;19947;-72
2022/07/15 02:28:03;;;;;;;;;;;13.80;99.90;;;;;;5064268;28;19951;-72
2022/07/15 02:30:33;;;;;;;;;;;13.80;99.90;;;;;;5064017;28;20366;-73
2022/07/15 02:32:59;;;;;;;;;;;13.80;99.90;;;;;;5062503;28;20431;-72
2022/07/15 02:35:24;;;;;;;;;;;13.80;99.90;;;;;;5062757;28;19912;-73
2022/07/15 02:37:50;;;;;;;;;;;13.80;99.90;;;;;;5062114;28;19958;-72
2022/07/15 02:40:15;;;;;;;;;;;13.80;99.90;;;;;;5062475;28;19917;-73
2022/07/15 02:42:46;;;;;;;;;;;13.80;99.90;;;;;;5064026;28;20331;-72
2022/07/15 02:45:12;;;;;;;;;;;13.80;99.90;;;;;;5063157;28;19939;-73
2022/07/15 02:47:37;;;;;;;;;;;13.80;99.90;;;;;;5062047;28;20389;-72
2022/07/15 02:50:03;;;;;;;;;;;13.80;99.90;;;;;;5063762;28;19912;-72
2022/07/15 02:52:28;;;;;;;;;;;13.90;99.90;;;;;;5062667;28;19916;-72
2022/07/15 02:54:54;;;;;;;;;;;13.80;99.90;;;;;;5057634;28;20402;-72
2022/07/15 02:57:20;;;;;;;;;;;13.90;99.90;;;;;;5054033;28;20266;-72
2022/07/15 02:59:45;;;;;;;;;;;13.90;99.90;;;;;;5054032;28;19966;-71
2022/07/15 03:02:10;;;;;;;;;;;14.00;99.90;;;;;;5054446;28;19992;-71
2022/07/15 03:04:37;;;;;;;;;;;14.00;99.90;;;;;;5054440;28;19908;-72
2022/07/15 03:07:03;;;;;;;;;;;14.00;99.90;;;;;;5054670;28;19932;-72
2022/07/15 03:09:28;;;;;;;;;;;14.00;99.90;;;;;;5036319;28;19908;-72
2022/07/15 03:11:54;;;;;;;;;;;14.00;99.90;;;;;;5053827;28;19919;-72
2022/07/15 03:14:19;;;;;;;;;;;14.00;99.90;;;;;;5033700;28;19932;-72
2022/07/15 03:16:46;;;;;;;;;;;14.00;99.90;;;;;;5039361;28;19909;-72
2022/07/15 03:19:12;;;;;;;;;;;14.00;99.90;;;;;;5041578;28;20277;-72
2022/07/15 03:21:37;;;;;;;;;;;14.00;99.90;;;;;;5043215;28;20007;-72
2022/07/15 03:24:03;;;;;;;;;;;13.90;99.90;;;;;;5053934;28;19913;-72
2022/07/15 03:26:29;;;;;;;;;;;14.00;99.90;;;;;;5035583;28;19909;-72
2022/07/15 03:28:55;;;;;;;;;;;13.90;99.90;;;;;;5034306;28;19916;-72
2022/07/15 03:31:20;;;;;;;;;;;14.00;99.90;;;;;;5034232;28;19909;-72
2022/07/15 03:33:46;;;;;;;;;;;14.00;99.90;;;;;;5034069;28;19996;-72
2022/07/15 03:36:11;;;;;;;;;;;14.00;99.90;;;;;;5034252;28;20390;-72
2022/07/15 03:38:37;;;;;;;;;;;14.00;99.90;;;;;;5034006;28;19910;-72
2022/07/15 03:41:02;;;;;;;;;;;14.10;99.90;;;;;;5034051;28;19920;-72
2022/07/15 03:43:30;;;;;;;;;;;14.10;99.90;;;;;;5034041;28;19929;-72
2022/07/15 03:45:56;;;;;;;;;;;14.20;99.90;;;;;;5135388;22;19951;-72
2022/07/15 03:48:21;;;;;;;;;;;14.10;99.90;;;;;;5097436;28;19912;-71
2022/07/15 03:50:47;;;;;;;;;;;14.10;99.90;;;;;;5115451;28;19907;-71
2022/07/15 03:53:13;;;;;;;;;;;14.10;99.90;;;;;;5115993;28;19934;-71
2022/07/15 03:55:38;;;;;;;;;;;14.10;99.90;;;;;;5115651;28;19933;-71
2022/07/15 03:58:05;;;;;;;;;;;14.10;99.90;;;;;;5116404;28;19911;-71
2022/07/15 04:00:30;;;;;;;;;;;14.10;99.90;;;;;;5117326;28;19916;-70
2022/07/15 04:02:55;;;;;;;;;;;14.00;99.90;;;;;;5101083;28;19914;-71
2022/07/15 04:05:21;;;;;;;;;;;14.00;99.90;;;;;;5117062;28;19953;-71
2022/07/15 04:07:47;;;;;;;;;;;14.00;99.90;;;;;;5116597;28;19964;-71
2022/07/15 04:10:13;;;;;;;;;;;14.00;99.90;;;;;;5116431;28;20414;-71
2022/07/15 04:12:38;;;;;;;;;;;13.90;99.90;;;;;;5116070;28;19908;-71
2022/07/15 04:15:04;;;;;;;;;;;13.90;99.90;;;;;;5116104;28;19933;-71
2022/07/15 04:17:30;;;;;;;;;;;13.90;99.90;;;;;;5098021;28;19931;-71
2022/07/15 04:19:55;;;;;;;;;;;13.80;99.90;;;;;;5115037;28;19912;-71
2022/07/15 04:22:21;;;;;;;;;;;13.90;99.90;;;;;;5115271;28;19912;-72
2022/07/15 04:24:46;;;;;;;;;;;13.90;99.90;;;;;;5115364;28;19908;-72
2022/07/15 04:27:12;;;;;;;;;;;14.00;99.90;;;;;;5096795;28;19908;-72
2022/07/15 04:29:37;;;;;;;;;;;14.00;99.90;;;;;;5115102;28;20368;-72
2022/07/15 04:32:03;;;;;;;;;;;14.10;99.90;;;;;;5115469;28;19912;-72
2022/07/15 04:34:29;;;;;;;;;;;14.00;99.90;;;;;;5115392;28;19956;-72
2022/07/15 04:36:54;;;;;;;;;;;14.10;99.90;;;;;;5115907;28;20023;-72
2022/07/15 04:39:20;;;;;;;;;;;14.20;99.90;;;;;;5125139;28;20337;-71
2022/07/15 04:41:45;;;;;;;;;;;14.20;99.90;;;;;;5130256;28;19914;-71
2022/07/15 04:44:11;;;;;;;;;;;14.20;99.90;;;;;;5115679;28;19995;-71
2022/07/15 04:46:36;;;;;;;;;;;14.30;99.90;;;;;;5097538;28;19908;-72
2022/07/15 04:51:46;;;;;;;;;;;14.30;99.90;;;;;;5116544;28;19919;-71
2022/07/15 04:54:11;;;;;;;;;;;14.40;99.90;;;;;;5115208;28;19912;-72
2022/07/15 04:56:37;;;;;;;;;;;14.40;99.90;;;;;;5117975;28;19908;-72
2022/07/15 04:59:02;;;;;;;;;;;14.40;99.90;;;;;;5119243;28;19919;-71
2022/07/15 05:01:28;;;;;;;;;;;14.40;99.90;;;;;;5118730;28;19911;-71
2022/07/15 05:03:53;;;;;;;;;;;14.50;99.90;;;;;;5118820;28;20388;-72
2022/07/15 05:06:19;;;;;;;;;;;14.50;99.90;;;;;;5118997;28;19957;-71
2022/07/15 05:08:45;;;;;;;;;;;14.60;99.90;;;;;;5100763;28;19915;-72
2022/07/15 05:11:10;;;;;;;;;;;14.60;99.90;;;;;;5101492;28;20380;-72
2022/07/15 05:13:36;;;;;;;;;;;14.60;99.90;;;;;;5120443;28;20002;-72
2022/07/15 05:16:01;;;;;;;;;;;14.60;99.90;;;;;;5119959;28;19931;-73
2022/07/15 05:18:27;;;;;;;;;;;14.60;99.90;;;;;;5119865;28;19908;-72
2022/07/15 05:20:52;;;;;;;;;;;14.60;99.90;;;;;;5120351;28;19912;-72
2022/07/15 05:23:19;;;;;;;;;;;14.70;99.90;;;;;;5120742;28;19908;-72
2022/07/15 05:25:45;;;;;;;;;;;14.70;99.90;;;;;;5120931;28;19943;-72
2022/07/15 05:28:11;;;;;;;;;;;14.80;99.90;;;;;;5122074;28;20265;-72
2022/07/15 05:30:37;;;;;;;;;;;14.80;99.90;;;;;;5120151;28;19993;-72
2022/07/15 05:33:03;;;;;;;;;;;14.90;99.90;;;;;;5118400;28;19914;-72
2022/07/15 05:35:28;;;;;;;;;;;14.90;99.90;;;;;;5099895;28;19908;-72
2022/07/15 05:37:54;;;;;;;;;;;15.00;99.90;;;;;;5118388;28;19912;-72
2022/07/15 05:40:20;;;;;;;;;;;15.10;99.90;;;;;;5118062;28;19919;-71
2022/07/15 05:42:46;;;;;;;;;;;15.00;99.90;;;;;;5099632;28;19908;-71
2022/07/15 05:45:12;;;;;;;;;;;15.10;99.90;;;;;;5117740;28;19927;-71
2022/07/15 05:47:37;;;;;;;;;;;15.20;99.90;;;;;;5118739;28;19908;-71
2022/07/15 05:50:03;;;;;;;;;;;15.20;99.90;;;;;;5118279;28;19911;-71
2022/07/15 05:52:29;;;;;;;;;;;15.40;99.90;;;;;;5117991;28;20280;-71
2022/07/15 05:54:54;;;;;;;;;;;15.30;99.90;;;;;;5118521;28;19935;-72
2022/07/15 05:57:20;;;;;;;;;;;15.30;99.90;;;;;;5119670;28;19932;-72
2022/07/15 05:59:45;;;;;;;;;;;15.30;99.90;;;;;;5101446;28;20352;-72
2022/07/15 06:02:13;;;;;;;;;;;15.40;99.90;;;;;;5119961;28;19919;-71
2022/07/15 06:04:39;;;;;;;;;;;15.50;99.90;;;;;;5117756;28;19957;-71
2022/07/15 06:07:05;;;;;;;;;;;15.60;99.90;;;;;;5098713;28;20361;-72
2022/07/15 06:09:30;;;;;;;;;;;15.60;99.90;;;;;;5118100;28;20337;-72
2022/07/15 06:11:56;;;;;;;;;;;15.60;99.90;;;;;;5118117;28;19907;-73
2022/07/15 06:14:21;;;;;;;;;;;15.70;99.90;;;;;;5117298;28;19912;-72
2022/07/15 06:16:47;;;;;;;;;;;15.70;99.90;;;;;;5117884;28;19914;-71
2022/07/15 06:19:12;;;;;;;;;;;15.60;99.90;;;;;;5117077;28;19957;-71
2022/07/15 06:21:38;;;;;;;;;;;15.50;99.90;;;;;;5117219;28;20280;-71
2022/07/15 06:24:03;;;;;;;;;;;15.60;99.90;;;;;;5118609;28;19908;-72
2022/07/15 06:26:29;;;;;;;;;;;15.70;99.90;;;;;;5118450;28;19930;-72
2022/07/15 06:28:54;;;;;;;;;;;15.70;99.90;;;;;;5117851;28;19915;-71
2022/07/15 06:31:20;;;;;;;;;;;15.70;99.90;;;;;;5119396;28;19951;-72
2022/07/15 06:33:46;;;;;;;;;;;15.80;99.90;;;;;;5118429;28;20004;-72
2022/07/15 06:36:11;;;;;;;;;;;15.90;99.90;;;;;;5116612;28;20383;-72
2022/07/15 06:38:37;;;;;;;;;;;15.90;99.90;;;;;;5117020;28;19908;-72
2022/07/15 06:41:02;;;;;;;;;;;15.90;99.90;;;;;;5116442;28;19922;-72
2022/07/15 06:43:28;;;;;;;;;;;16.00;99.90;;;;;;5116750;28;19940;-72
2022/07/15 06:45:53;;;;;;;;;;;16.00;99.90;;;;;;5098569;28;19977;-73
2022/07/15 06:48:22;;;;;;;;;;;16.10;99.90;;;;;;5117577;28;19907;-72
2022/07/15 06:50:48;;;;;;;;;;;16.20;99.90;;;;;;5099708;28;20420;-72
2022/07/15 06:53:14;;;;;;;;;;;16.20;99.90;;;;;;5116710;28;19954;-72
2022/07/15 06:55:39;;;;;;;;;;;16.30;99.90;;;;;;5098462;28;19908;-72
2022/07/15 06:58:05;;;;;;;;;;;16.40;99.90;;;;;;5116802;28;19915;-72
2022/07/15 07:00:30;;;;;;;;;;;16.50;99.90;;;;;;5116598;28;19912;-72
2022/07/15 07:02:56;;;;;;;;;;;16.60;99.90;;;;;;5098418;28;19914;-72
2022/07/15 07:05:21;;;;;;;;;;;16.60;99.90;;;;;;5116567;28;20253;-73
2022/07/15 07:07:47;;;;;;;;;;;16.60;99.90;;;;;;5117056;28;19914;-72
2022/07/15 07:10:12;;;;;;;;;;;16.50;99.90;;;;;;5117134;28;20010;-71
2022/07/15 07:12:38;;;;;;;;;;;16.50;99.90;;;;;;5108128;28;19912;-71
2022/07/15 07:15:06;;;;;;;;;;;16.50;99.90;;;;;;5076941;28;20006;-72
2022/07/15 07:17:31;;;;;;;;;;;16.60;99.90;;;;;;5094351;28;19908;-72
2022/07/15 07:19:56;;;;;;;;;;;16.60;99.90;;;;;;5096562;28;19919;-72
2022/07/15 07:22:22;;;;;;;;;;;16.60;99.90;;;;;;5096507;28;19967;-72
2022/07/15 07:24:47;;;;;;;;;;;16.60;99.90;;;;;;5096603;28;20082;-73
2022/07/15 07:27:14;;;;;;;;;;;16.50;99.90;;;;;;5096416;28;19962;-72
2022/07/15 07:29:39;;;;;;;;;;;16.40;99.90;;;;;;5078395;28;19915;-72
2022/07/15 07:32:05;;;;;;;;;;;16.50;99.90;;;;;;5096469;28;20301;-72
2022/07/15 07:34:34;;;;;;;;;;;16.60;99.90;;;;;;5098381;28;19916;-72
2022/07/15 07:36:59;;;;;;;;;;;16.70;99.90;;;;;;5083355;28;19915;-72
2022/07/15 07:39:25;;;;;;;;;;;16.70;99.90;;;;;;5103598;28;20010;-72
2022/07/15 07:41:53;;;;;;;;;;;16.60;99.90;;;;;;5107614;28;19943;-73
2022/07/15 07:44:19;;;;;;;;;;;16.70;99.90;;;;;;5091192;28;19907;-72
2022/07/15 07:46:45;;;;;;;;;;;16.70;99.90;;;;;;5096235;28;19908;-73
2022/07/15 07:49:12;;;;;;;;;;;17.00;99.90;;;;;;5096543;28;19916;-72
2022/07/15 07:51:40;;;;;;;;;;;16.90;99.90;;;;;;5096852;28;19908;-72
2022/07/15 07:54:06;;;;;;;;;;;16.90;99.90;;;;;;5097174;28;20018;-72
2022/07/15 07:56:31;;;;;;;;;;;16.80;99.90;;;;;;5095299;28;19908;-72
2022/07/15 07:58:57;;;;;;;;;;;16.80;99.90;;;;;;5095589;28;19915;-71
2022/07/15 08:01:22;;;;;;;;;;;16.80;99.90;;;;;;5095588;28;19912;-72
2022/07/15 08:03:50;;;;;;;;;;;16.80;99.90;;;;;;5095378;28;19908;-72
2022/07/15 08:06:16;;;;;;;;;;;16.70;99.90;;;;;;5102079;28;19912;-72
2022/07/15 08:08:41;;;;;;;;;;;16.50;99.90;;;;;;5106234;28;19908;-71
2022/07/15 08:11:07;;;;;;;;;;;16.50;99.90;;;;;;5097457;28;19915;-70
2022/07/15 08:13:33;;;;;;;;;;;16.60;99.90;;;;;;5115256;28;19915;-70
2022/07/15 08:15:58;;;;;;;;;;;16.70;99.90;;;;;;5117203;28;19907;-71
2022/07/15 08:18:24;;;;;;;;;;;16.90;99.90;;;;;;5115951;28;19919;-71
2022/07/15 08:20:49;;;;;;;;;;;17.00;99.90;;;;;;5115493;28;19918;-71
2022/07/15 08:23:20;;;;;;;;;;;17.30;99.90;;;;;;5115584;28;19958;-71
2022/07/15 08:25:46;;;;;;;;;;;17.50;99.90;;;;;;5098022;28;19915;-72
2022/07/15 08:28:12;;;;;;;;;;;17.20;99.90;;;;;;5116129;28;19908;-71
2022/07/15 08:30:37;;;;;;;;;;;17.20;99.90;;;;;;5101289;28;20002;-70
2022/07/15 08:33:03;;;;;;;;;;;17.40;99.90;;;;;;5098747;28;19908;-70
2022/07/15 08:35:29;;;;;;;;;;;17.50;99.90;;;;;;5100334;28;19916;-71
2022/07/15 08:37:54;;;;;;;;;;;17.50;99.90;;;;;;5121320;28;20284;-76
2022/07/15 08:40:21;;;;;;;;;;;17.70;99.90;;;;;;5121060;28;20010;-76
2022/07/15 08:42:47;;;;;;;;;;;17.80;99.90;;;;;;5102725;28;19943;-76
2022/07/15 08:45:13;;;;;;;;;;;17.80;99.90;;;;;;5121673;28;19916;-76
2022/07/15 08:47:41;;;;;;;;;;;18.00;99.90;;;;;;5124226;28;19908;-75
2022/07/15 08:50:08;;;;;;;;;;;18.10;99.90;;;;;;5121471;28;19903;-75
2022/07/15 08:52:34;;;;;;;;;;;18.20;99.90;;;;;;5123519;28;19907;-75
2022/07/15 08:55:00;;;;;;;;;;;18.40;99.90;;;;;;5113094;28;20006;-76
2022/07/15 08:57:25;;;;;;;;;;;18.20;99.90;;;;;;5102800;28;19939;-76
2022/07/15 08:59:51;;;;;;;;;;;18.30;99.90;;;;;;5082634;28;19977;-76
2022/07/15 09:02:20;;;;;;;;;;;18.50;99.90;;;;;;5083021;28;19950;-76
2022/07/15 09:05:04;;;;;;;;;;;18.50;99.90;;;;;;5101688;28;19908;-77
2022/07/15 09:07:31;;;;;;;;;;;18.60;99.90;;;;;;5099631;28;19908;-72
2022/07/15 09:09:56;;;;;;;;;;;18.60;99.90;;;;;;5100630;28;19958;-71
2022/07/15 09:12:22;;;;;;;;;;;18.70;99.90;;;;;;5108770;28;19931;-71
2022/07/15 09:14:48;;;;;;;;;;;18.90;99.90;;;;;;5098172;28;19939;-71
2022/07/15 09:17:13;;;;;;;;;;;18.90;99.90;;;;;;5098661;28;20012;-72
2022/07/15 09:19:57;;;;;;;;;;;18.80;99.90;;;;;;5098352;28;19914;-72
2022/07/15 09:22:24;;;;;;;;;;;18.80;99.90;;;;;;5080101;28;19931;-71
2022/07/15 09:25:09;;;;;;;;;;;18.90;99.90;;;;;;5097153;28;20380;-71
2022/07/15 09:27:40;;;;;;;;;;;19.00;99.90;;;;;;5080611;28;19964;-72
2022/07/15 09:36:03;;;;;;;;;;;19.40;99.90;;;;;;5097808;28;19962;-73
2022/07/15 09:38:46;;;;;;;;;;;19.10;99.90;;;;;;5098728;28;19908;-73
2022/07/15 09:41:11;;;;;;;;;;;19.20;99.90;;;;;;5078437;28;20343;-73
2022/07/15 09:44:03;;;;;;;;;;;19.30;99.90;;;;;;5082342;28;19943;-71
2022/07/15 09:46:39;;;;;;;;;;;19.20;99.90;;;;;;5065110;22;21327;-71
2022/07/15 09:49:05;;;;;;;;;;;19.20;99.90;;;;;;5055761;28;19925;-70
2022/07/15 09:51:41;;;;;;;;;;;19.20;99.90;;;;;;5055645;28;19916;-70
2022/07/15 09:54:07;;;;;;;;;;;19.00;99.90;;;;;;5059661;28;19924;-70
2022/07/15 09:56:32;;;;;;;;;;;19.00;99.90;;;;;;5055568;28;19909;-71
2022/07/15 09:58:58;;;;;;;;;;;18.80;99.90;;;;;;5055780;28;19967;-71
2022/07/15 10:01:25;;;;;;;;;;;18.80;99.90;;;;;;5042787;28;19963;-71
2022/07/15 10:03:50;;;;;;;;;;;18.70;99.90;;;;;;5053926;28;20042;-70
2022/07/15 10:06:16;;;;;;;;;;;18.70;99.90;;;;;;5055489;28;19916;-70
2022/07/15 10:08:46;;;;;;;;;;;18.80;99.90;;;;;;5053762;28;20358;-70
2022/07/15 10:11:11;;;;;;;;;;;18.70;99.90;;;;;;5034111;28;19941;-70
2022/07/15 10:13:42;;;;;;;;;;;18.70;99.90;;;;;;5054153;28;20329;-71
2022/07/15 10:16:17;;;;;;;;;;;18.70;99.90;;;;;;5052078;28;19980;-71
2022/07/15 10:19:07;;;;;;;;;;;18.50;99.90;;;;;;5055188;28;19959;-70
2022/07/15 10:21:51;;;;;;;;;;;18.30;99.90;;;;;;5033926;28;19919;-71
2022/07/15 10:24:53;;;;;;;;;;;17.70;99.90;;;;;;5054968;28;19916;-71
2022/07/15 10:27:28;;;;;;;;;;;17.00;99.90;;;;;;4973859;28;19933;-71
2022/07/15 10:29:55;;;;;;;;;;;16.50;99.90;;;;;;5043321;28;20286;-71
2022/07/15 10:32:20;;;;;;;;;;;16.20;99.90;;;;;;5053826;28;19913;-71
2022/07/15 10:34:46;;;;;;;;;;;15.90;99.90;;;;;;5054272;28;20000;-71
2022/07/15 10:37:12;;;;;;;;;;;15.70;99.90;;;;;;5054047;28;19951;-71
2022/07/15 10:39:47;;;;;;;;;;;15.50;99.90;;;;;;5036408;28;19909;-71
2022/07/15 10:42:13;;;;;;;;;;;15.40;99.90;;;;;;5036243;28;19932;-71
2022/07/15 10:44:49;;;;;;;;;;;15.30;99.90;;;;;;5053698;28;19908;-71
2022/07/15 10:47:15;;;;;;;;;;;15.30;99.90;;;;;;5053629;28;20270;-71
2022/07/15 10:49:41;;;;;;;;;;;15.40;99.90;;;;;;5054825;28;19970;-71
2022/07/15 10:52:11;;;;;;;;;;;15.70;99.90;;;;;;5036451;28;19944;-71
2022/07/15 10:54:38;;;;;;;;;;;15.80;99.90;;;;;;5054501;28;19915;-71
2022/07/15 10:57:03;;;;;;;;;;;16.10;99.90;;;;;;5053993;28;19999;-71
2022/07/15 10:59:34;;;;;;;;;;;16.30;99.90;;;;;;5054360;28;19948;-71
2022/07/15 11:02:00;;;;;;;;;;;16.50;99.90;;;;;;5053776;28;19917;-71
2022/07/15 11:04:27;;;;;;;;;;;16.80;99.90;;;;;;5060945;28;19915;-71
2022/07/15 11:07:09;;;;;;;;;;;17.10;99.90;;;;;;5043986;28;19909;-71
2022/07/15 11:09:57;;;;;;;;;;;17.20;99.90;;;;;;5054812;28;20278;-72
2022/07/15 11:12:28;;;;;;;;;;;17.60;99.90;;;;;;5054615;28;20376;-72
2022/07/15 11:14:54;;;;;;;;;;;17.80;99.90;;;;;;5036629;28;19908;-72
2022/07/15 11:17:21;;;;;;;;;;;17.80;99.90;;;;;;5054507;28;19958;-71
2022/07/15 11:19:51;;;;;;;;;;;17.80;99.90;;;;;;5053646;28;19974;-72
2022/07/15 11:22:17;;;;;;;;;;;18.00;99.90;;;;;;5053617;28;19995;-71
2022/07/15 11:24:45;;;;;;;;;;;18.10;99.90;;;;;;5053184;28;20198;-70
2022/07/15 11:27:10;;;;;;;;;;;18.10;99.90;;;;;;5053557;28;19909;-72
2022/07/15 11:29:43;;;;;;;;;;;18.20;99.90;;;;;;5049571;28;20361;-71
2022/07/15 11:32:08;;;;;;;;;;;18.40;99.90;;;;;;5038997;28;19916;-72
2022/07/15 11:34:42;;;;;;;;;;;18.50;99.90;;;;;;5053496;28;19908;-72
2022/07/15 11:37:10;;;;;;;;;;;18.50;99.90;;;;;;5042750;28;19909;-70
2022/07/15 11:39:36;;;;;;;;;;;18.70;99.90;;;;;;5037205;28;19916;-71
2022/07/15 11:45:06;;;;;;;;;;;19.20;99.90;;;;;;4986782;28;20291;-71
2022/07/15 11:47:32;;;;;;;;;;;19.20;99.90;;;;;;4971372;28;19925;-71
2022/07/15 11:49:59;;;;;;;;;;;19.30;99.90;;;;;;5000106;28;19909;-71
2022/07/15 11:52:25;;;;;;;;;;;19.40;99.90;;;;;;5033608;28;19985;-71
2022/07/15 11:54:51;;;;;;;;;;;19.40;99.90;;;;;;5043927;28;20362;-70
2022/07/15 11:57:17;;;;;;;;;;;19.50;99.90;;;;;;5047936;28;19909;-71
2022/07/15 11:59:55;;;;;;;;;;;19.60;99.90;;;;;;5050861;28;19916;-71
2022/07/15 12:02:25;;;;;;;;;;;19.60;99.90;;;;;;5051213;28;19909;-69
2022/07/15 12:04:51;;;;;;;;;;;19.50;99.90;;;;;;5054084;28;19913;-71
2022/07/15 12:07:16;;;;;;;;;;;19.50;99.90;;;;;;5038051;28;19915;-71
2022/07/15 12:09:43;;;;;;;;;;;19.40;99.90;;;;;;5055643;28;19909;-72
2022/07/15 12:12:08;;;;;;;;;;;19.30;99.90;;;;;;5056126;28;19908;-71
2022/07/15 12:14:34;;;;;;;;;;;19.10;99.90;;;;;;5057272;28;19915;-71
2022/07/15 12:17:00;;;;;;;;;;;19.00;99.90;;;;;;5061664;28;20019;-71
2022/07/15 12:19:27;;;;;;;;;;;19.10;99.90;;;;;;5044738;28;20366;-72
2022/07/15 12:21:57;;;;;;;;;;;19.20;99.90;;;;;;5039313;28;19913;-71
2022/07/15 12:24:26;;;;;;;;;;;19.40;99.90;;;;;;5057635;28;20258;-71
2022/07/15 12:26:54;;;;;;;;;;;19.40;99.90;;;;;;5057430;28;19980;-71
2022/07/15 12:29:25;;;;;;;;;;;19.50;99.90;;;;;;5057285;28;19981;-71
2022/07/15 12:32:10;;;;;;;;;;;19.40;99.90;;;;;;5048023;28;19924;-70
2022/07/15 12:34:47;;;;;;;;;;;19.20;99.90;;;;;;5038884;28;19909;-69
2022/07/15 12:37:33;;;;;;;;;;;18.90;99.90;;;;;;5037405;28;19909;-70
2022/07/15 12:40:04;;;;;;;;;;;18.90;99.90;;;;;;5040047;28;19935;-70
2022/07/15 12:42:31;;;;;;;;;;;18.90;99.90;;;;;;5056695;28;19919;-69
2022/07/15 12:45:05;;;;;;;;;;;18.70;99.90;;;;;;5056581;28;19948;-69
2022/07/15 12:47:31;;;;;;;;;;;18.60;99.90;;;;;;5056402;28;20337;-69
2022/07/15 12:49:58;;;;;;;;;;;18.30;99.90;;;;;;5056603;28;20076;-70
2022/07/15 12:52:33;;;;;;;;;;;18.10;99.90;;;;;;5057781;28;19958;-70
2022/07/15 12:55:00;;;;;;;;;;;17.50;99.90;;;;;;5038493;28;20311;-70
2022/07/15 12:57:31;;;;;;;;;;;16.90;99.90;;;;;;5056056;28;20378;-70
2022/07/15 12:59:58;;;;;;;;;;;16.60;99.90;;;;;;5056383;28;19913;-70
2022/07/15 13:02:24;;;;;;;;;;;16.30;99.90;;;;;;5055841;28;20238;-71
2022/07/15 13:04:50;;;;;;;;;;;16.00;99.90;;;;;;5045155;28;19913;-70
2022/07/15 13:07:16;;;;;;;;;;;15.90;99.90;;;;;;5044914;28;19921;-70
2022/07/15 13:09:42;;;;;;;;;;;15.80;99.90;;;;;;5043960;28;19920;-70
2022/07/15 13:12:08;;;;;;;;;;;15.80;99.90;;;;;;5043805;28;20374;-70
2022/07/15 13:14:34;;;;;;;;;;;15.80;99.90;;;;;;5043686;28;19909;-71
2022/07/15 13:17:00;;;;;;;;;;;15.90;99.90;;;;;;5042547;28;20293;-71
2022/07/15 13:19:26;;;;;;;;;;;15.90;99.90;;;;;;5045408;28;19928;-70
2022/07/15 13:21:52;;;;;;;;;;;15.90;99.90;;;;;;5046306;28;19919;-71
2022/07/15 13:24:17;;;;;;;;;;;15.80;99.90;;;;;;5044052;28;19909;-71
2022/07/15 13:26:43;;;;;;;;;;;15.80;99.90;;;;;;5046097;28;19916;-71
2022/07/15 13:29:08;;;;;;;;;;;15.90;99.90;;;;;;5055925;28;20301;-70
2022/07/15 13:31:34;;;;;;;;;;;16.00;99.90;;;;;;5049662;28;19915;-71
2022/07/15 13:33:59;;;;;;;;;;;16.10;99.90;;;;;;5042890;28;20008;-71
2022/07/15 13:36:25;;;;;;;;;;;16.20;99.90;;;;;;5045528;28;19995;-70
2022/07/15 13:38:51;;;;;;;;;;;16.30;99.90;;;;;;5046520;28;19924;-71
2022/07/15 13:41:16;;;;;;;;;;;16.40;99.90;;;;;;5045462;28;19917;-70
2022/07/15 13:43:42;;;;;;;;;;;16.60;99.90;;;;;;5045578;28;20381;-70
2022/07/15 13:46:08;;;;;;;;;;;16.70;99.90;;;;;;5045887;28;19912;-72
2022/07/15 13:48:34;;;;;;;;;;;16.90;99.90;;;;;;5042357;28;19917;-71
2022/07/15 13:53:44;;;;;;;;;;;16.80;99.90;;;;;;5056820;28;19924;-70
2022/07/15 13:56:10;;;;;;;;;;;16.80;99.90;;;;;;5035906;28;20413;-71
2022/07/15 13:58:36;;;;;;;;;;;16.70;99.90;;;;;;5053101;28;19927;-71
2022/07/15 14:01:01;;;;;;;;;;;16.80;99.90;;;;;;5060254;28;20126;-72
2022/07/15 14:03:28;;;;;;;;;;;16.80;99.90;;;;;;5059364;28;19941;-72
2022/07/15 14:05:54;;;;;;;;;;;17.00;99.90;;;;;;5058928;28;19933;-69
2022/07/15 14:08:19;;;;;;;;;;;17.10;99.90;;;;;;5060885;28;20015;-70
2022/07/15 14:10:45;;;;;;;;;;;17.20;99.90;;;;;;5046142;28;19909;-70
2022/07/15 14:13:10;;;;;;;;;;;17.30;99.90;;;;;;5042672;28;20371;-70
2022/07/15 14:15:36;;;;;;;;;;;17.30;99.90;;;;;;5043290;28;19947;-70
2022/07/15 14:18:01;;;;;;;;;;;17.30;99.90;;;;;;5044204;28;19935;-71
2022/07/15 14:20:27;;;;;;;;;;;17.40;99.90;;;;;;5045192;28;19954;-71
2022/07/15 14:22:53;;;;;;;;;;;17.50;99.90;;;;;;5043888;28;19939;-71
2022/07/15 14:25:19;;;;;;;;;;;17.60;99.90;;;;;;5042913;28;19916;-71
2022/07/15 14:27:44;;;;;;;;;;;17.80;99.90;;;;;;5047907;28;19909;-71
2022/07/15 14:30:11;;;;;;;;;;;18.00;99.90;;;;;;5047234;28;19958;-72
2022/07/15 14:32:37;;;;;;;;;;;18.30;99.90;;;;;;5046173;28;19909;-72